sensor_id;sensor_type;location;lat;lon;timestamp;P1;durP1;ratioP1;P2;durP2;ratioP2
74920;SDS011;63483;47.384;8.860;2023-05-24T00:00:58;10.93;;;7.50;;
74920;SDS011;63483;47.384;8.860;2023-05-24T00:03:24;10.05;;;7.80;;
74920;SDS011;63483;47.384;8.860;2023-05-24T00:05:49;10.33;;;8.30;;
74920;SDS011;63483;47.384;8.860;2023-05-24T00:08:16;12.07;;;8.93;;
74920;SDS011;63483;47.384;8.860;2023-05-24T00:10:41;13.17;;;7.97;;
74920;SDS011;63483;47.384;8.860;2023-05-24T00:13:07;10.30;;;7.90;;
74920;SDS011;63483;47.384;8.860;2023-05-24T00:15:32;10.53;;;7.70;;
74920;SDS011;63483;47.384;8.860;2023-05-24T00:17:58;11.10;;;7.80;;
74920;SDS011;63483;47.384;8.860;2023-05-24T00:20:23;11.53;;;8.13;;
74920;SDS011;63483;47.384;8.860;2023-05-24T00:22:49;10.88;;;9.43;;
74920;SDS011;63483;47.384;8.860;2023-05-24T00:25:14;10.93;;;8.07;;
74920;SDS011;63483;47.384;8.860;2023-05-24T00:27:39;13.73;;;8.77;;
74920;SDS011;63483;47.384;8.860;2023-05-24T00:30:05;12.23;;;9.10;;
74920;SDS011;63483;47.384;8.860;2023-05-24T00:32:31;12.27;;;8.95;;
74920;SDS011;63483;47.384;8.860;2023-05-24T00:34:56;11.20;;;8.87;;
74920;SDS011;63483;47.384;8.860;2023-05-24T00:37:22;12.07;;;9.00;;
74920;SDS011;63483;47.384;8.860;2023-05-24T00:39:47;12.37;;;8.83;;
74920;SDS011;63483;47.384;8.860;2023-05-24T00:42:12;12.95;;;8.85;;
74920;SDS011;63483;47.384;8.860;2023-05-24T00:44:38;11.40;;;8.53;;
74920;SDS011;63483;47.384;8.860;2023-05-24T00:47:03;12.33;;;9.27;;
74920;SDS011;63483;47.384;8.860;2023-05-24T00:49:29;12.60;;;9.10;;
74920;SDS011;63483;47.384;8.860;2023-05-24T00:51:55;12.07;;;8.70;;
74920;SDS011;63483;47.384;8.860;2023-05-24T00:54:20;12.02;;;9.00;;
74920;SDS011;63483;47.384;8.860;2023-05-24T00:56:46;11.87;;;7.87;;
74920;SDS011;63483;47.384;8.860;2023-05-24T00:59:12;12.38;;;8.57;;
74920;SDS011;63483;47.384;8.860;2023-05-24T01:01:38;10.67;;;8.23;;
74920;SDS011;63483;47.384;8.860;2023-05-24T01:04:05;12.57;;;8.25;;
74920;SDS011;63483;47.384;8.860;2023-05-24T01:06:31;13.40;;;8.45;;
74920;SDS011;63483;47.384;8.860;2023-05-24T01:09:12;12.18;;;8.10;;
74920;SDS011;63483;47.384;8.860;2023-05-24T01:14:21;11.98;;;8.90;;
74920;SDS011;63483;47.384;8.860;2023-05-24T01:19:47;10.95;;;8.20;;
74920;SDS011;63483;47.384;8.860;2023-05-24T01:25:21;13.47;;;9.23;;
74920;SDS011;63483;47.384;8.860;2023-05-24T01:27:55;12.48;;;8.38;;
74920;SDS011;63483;47.384;8.860;2023-05-24T01:30:23;12.27;;;8.70;;
74920;SDS011;63483;47.384;8.860;2023-05-24T01:32:51;12.25;;;9.02;;
74920;SDS011;63483;47.384;8.860;2023-05-24T01:35:17;12.88;;;8.57;;
74920;SDS011;63483;47.384;8.860;2023-05-24T01:37:42;13.13;;;8.93;;
74920;SDS011;63483;47.384;8.860;2023-05-24T01:40:08;12.43;;;8.23;;
74920;SDS011;63483;47.384;8.860;2023-05-24T01:42:48;11.25;;;7.70;;
74920;SDS011;63483;47.384;8.860;2023-05-24T01:45:31;12.07;;;8.33;;
74920;SDS011;63483;47.384;8.860;2023-05-24T01:48:04;11.48;;;8.13;;
74920;SDS011;63483;47.384;8.860;2023-05-24T01:50:52;11.27;;;8.57;;
74920;SDS011;63483;47.384;8.860;2023-05-24T01:53:22;11.38;;;8.80;;
74920;SDS011;63483;47.384;8.860;2023-05-24T01:55:50;11.60;;;8.23;;
74920;SDS011;63483;47.384;8.860;2023-05-24T01:58:19;10.20;;;7.70;;
74920;SDS011;63483;47.384;8.860;2023-05-24T02:00:47;13.75;;;8.68;;
74920;SDS011;63483;47.384;8.860;2023-05-24T02:03:13;10.65;;;7.68;;
74920;SDS011;63483;47.384;8.860;2023-05-24T02:05:39;11.30;;;7.47;;
74920;SDS011;63483;47.384;8.860;2023-05-24T02:08:04;10.73;;;8.23;;
74920;SDS011;63483;47.384;8.860;2023-05-24T02:10:30;11.33;;;8.50;;
74920;SDS011;63483;47.384;8.860;2023-05-24T02:12:55;11.43;;;8.53;;
74920;SDS011;63483;47.384;8.860;2023-05-24T02:15:21;11.23;;;8.60;;
74920;SDS011;63483;47.384;8.860;2023-05-24T02:17:47;12.40;;;9.18;;
74920;SDS011;63483;47.384;8.860;2023-05-24T02:20:12;12.13;;;8.53;;
74920;SDS011;63483;47.384;8.860;2023-05-24T02:22:38;9.85;;;7.80;;
74920;SDS011;63483;47.384;8.860;2023-05-24T02:25:03;12.07;;;7.70;;
74920;SDS011;63483;47.384;8.860;2023-05-24T02:27:29;10.70;;;8.02;;
74920;SDS011;63483;47.384;8.860;2023-05-24T02:29:54;11.27;;;8.40;;
74920;SDS011;63483;47.384;8.860;2023-05-24T02:32:20;12.03;;;8.60;;
74920;SDS011;63483;47.384;8.860;2023-05-24T02:34:45;10.40;;;8.23;;
74920;SDS011;63483;47.384;8.860;2023-05-24T02:37:10;10.13;;;8.07;;
74920;SDS011;63483;47.384;8.860;2023-05-24T02:39:39;12.13;;;8.13;;
74920;SDS011;63483;47.384;8.860;2023-05-24T02:42:06;10.27;;;8.15;;
74920;SDS011;63483;47.384;8.860;2023-05-24T02:44:32;12.50;;;9.98;;
74920;SDS011;63483;47.384;8.860;2023-05-24T02:46:58;11.47;;;9.47;;
74920;SDS011;63483;47.384;8.860;2023-05-24T02:49:23;11.33;;;8.77;;
74920;SDS011;63483;47.384;8.860;2023-05-24T02:51:49;12.47;;;9.13;;
74920;SDS011;63483;47.384;8.860;2023-05-24T02:54:15;10.57;;;8.18;;
74920;SDS011;63483;47.384;8.860;2023-05-24T02:56:41;11.43;;;8.60;;
74920;SDS011;63483;47.384;8.860;2023-05-24T02:59:07;11.10;;;8.07;;
74920;SDS011;63483;47.384;8.860;2023-05-24T03:01:32;12.70;;;9.33;;
74920;SDS011;63483;47.384;8.860;2023-05-24T03:03:58;11.27;;;8.93;;
74920;SDS011;63483;47.384;8.860;2023-05-24T03:06:23;11.20;;;8.63;;
74920;SDS011;63483;47.384;8.860;2023-05-24T03:08:49;10.65;;;8.05;;
74920;SDS011;63483;47.384;8.860;2023-05-24T03:11:15;12.07;;;8.53;;
74920;SDS011;63483;47.384;8.860;2023-05-24T03:13:40;10.60;;;8.52;;
74920;SDS011;63483;47.384;8.860;2023-05-24T03:16:06;10.50;;;7.97;;
74920;SDS011;63483;47.384;8.860;2023-05-24T03:18:32;11.33;;;8.90;;
74920;SDS011;63483;47.384;8.860;2023-05-24T03:20:57;11.30;;;8.27;;
74920;SDS011;63483;47.384;8.860;2023-05-24T03:23:22;17.80;;;9.47;;
74920;SDS011;63483;47.384;8.860;2023-05-24T03:25:48;13.57;;;8.03;;
74920;SDS011;63483;47.384;8.860;2023-05-24T03:28:13;10.80;;;7.97;;
74920;SDS011;63483;47.384;8.860;2023-05-24T03:30:39;12.10;;;8.50;;
74920;SDS011;63483;47.384;8.860;2023-05-24T03:33:05;10.57;;;8.37;;
74920;SDS011;63483;47.384;8.860;2023-05-24T03:35:30;9.77;;;7.87;;
74920;SDS011;63483;47.384;8.860;2023-05-24T03:37:55;10.02;;;7.70;;
74920;SDS011;63483;47.384;8.860;2023-05-24T03:40:20;9.57;;;7.97;;
74920;SDS011;63483;47.384;8.860;2023-05-24T03:42:46;8.80;;;6.87;;
74920;SDS011;63483;47.384;8.860;2023-05-24T03:45:11;11.07;;;8.07;;
74920;SDS011;63483;47.384;8.860;2023-05-24T03:47:36;10.27;;;7.60;;
74920;SDS011;63483;47.384;8.860;2023-05-24T03:50:02;9.10;;;7.50;;
74920;SDS011;63483;47.384;8.860;2023-05-24T03:52:27;8.82;;;6.35;;
74920;SDS011;63483;47.384;8.860;2023-05-24T03:54:53;10.80;;;6.27;;
74920;SDS011;63483;47.384;8.860;2023-05-24T03:57:18;7.50;;;6.10;;
74920;SDS011;63483;47.384;8.860;2023-05-24T03:59:44;9.37;;;7.03;;
74920;SDS011;63483;47.384;8.860;2023-05-24T04:02:09;10.80;;;7.20;;
74920;SDS011;63483;47.384;8.860;2023-05-24T04:04:35;9.90;;;6.37;;
74920;SDS011;63483;47.384;8.860;2023-05-24T04:07:01;6.80;;;5.90;;
74920;SDS011;63483;47.384;8.860;2023-05-24T04:09:26;8.13;;;5.93;;
74920;SDS011;63483;47.384;8.860;2023-05-24T04:11:52;7.57;;;6.20;;
74920;SDS011;63483;47.384;8.860;2023-05-24T04:14:17;6.80;;;5.80;;
74920;SDS011;63483;47.384;8.860;2023-05-24T04:16:43;7.15;;;6.00;;
74920;SDS011;63483;47.384;8.860;2023-05-24T04:19:09;6.70;;;5.60;;
74920;SDS011;63483;47.384;8.860;2023-05-24T04:21:35;6.40;;;5.40;;
74920;SDS011;63483;47.384;8.860;2023-05-24T04:24:01;5.95;;;5.13;;
74920;SDS011;63483;47.384;8.860;2023-05-24T04:26:27;6.35;;;4.85;;
74920;SDS011;63483;47.384;8.860;2023-05-24T04:28:53;5.50;;;4.10;;
74920;SDS011;63483;47.384;8.860;2023-05-24T04:31:19;4.80;;;4.10;;
74920;SDS011;63483;47.384;8.860;2023-05-24T04:33:45;5.97;;;4.70;;
74920;SDS011;63483;47.384;8.860;2023-05-24T04:36:11;7.17;;;4.87;;
74920;SDS011;63483;47.384;8.860;2023-05-24T04:38:37;6.70;;;4.20;;
74920;SDS011;63483;47.384;8.860;2023-05-24T04:41:03;5.82;;;4.28;;
74920;SDS011;63483;47.384;8.860;2023-05-24T04:43:32;6.72;;;4.47;;
74920;SDS011;63483;47.384;8.860;2023-05-24T04:45:58;7.03;;;4.80;;
74920;SDS011;63483;47.384;8.860;2023-05-24T04:48:24;5.00;;;4.00;;
74920;SDS011;63483;47.384;8.860;2023-05-24T04:50:53;5.28;;;4.28;;
74920;SDS011;63483;47.384;8.860;2023-05-24T04:53:19;5.70;;;3.97;;
74920;SDS011;63483;47.384;8.860;2023-05-24T04:55:45;5.25;;;4.22;;
74920;SDS011;63483;47.384;8.860;2023-05-24T04:58:11;5.65;;;4.28;;
74920;SDS011;63483;47.384;8.860;2023-05-24T05:00:37;5.07;;;3.97;;
74920;SDS011;63483;47.384;8.860;2023-05-24T05:03:02;5.32;;;4.05;;
74920;SDS011;63483;47.384;8.860;2023-05-24T05:05:27;4.87;;;3.67;;
74920;SDS011;63483;47.384;8.860;2023-05-24T05:07:53;5.50;;;4.00;;
74920;SDS011;63483;47.384;8.860;2023-05-24T05:10:18;4.43;;;3.37;;
74920;SDS011;63483;47.384;8.860;2023-05-24T05:12:44;4.53;;;3.60;;
74920;SDS011;63483;47.384;8.860;2023-05-24T05:15:09;4.95;;;3.58;;
74920;SDS011;63483;47.384;8.860;2023-05-24T05:17:35;6.00;;;4.13;;
74920;SDS011;63483;47.384;8.860;2023-05-24T05:20:01;5.25;;;3.70;;
74920;SDS011;63483;47.384;8.860;2023-05-24T05:22:27;4.43;;;3.47;;
74920;SDS011;63483;47.384;8.860;2023-05-24T05:24:52;6.57;;;4.75;;
74920;SDS011;63483;47.384;8.860;2023-05-24T05:27:17;6.47;;;4.97;;
74920;SDS011;63483;47.384;8.860;2023-05-24T05:29:43;5.03;;;4.33;;
74920;SDS011;63483;47.384;8.860;2023-05-24T05:32:08;5.13;;;4.17;;
74920;SDS011;63483;47.384;8.860;2023-05-24T05:34:33;6.73;;;5.47;;
74920;SDS011;63483;47.384;8.860;2023-05-24T05:36:59;6.03;;;4.97;;
74920;SDS011;63483;47.384;8.860;2023-05-24T05:39:24;5.05;;;4.47;;
74920;SDS011;63483;47.384;8.860;2023-05-24T05:41:50;5.40;;;4.00;;
74920;SDS011;63483;47.384;8.860;2023-05-24T05:44:15;5.37;;;3.90;;
74920;SDS011;63483;47.384;8.860;2023-05-24T05:46:40;5.50;;;3.93;;
74920;SDS011;63483;47.384;8.860;2023-05-24T05:49:07;4.88;;;4.00;;
74920;SDS011;63483;47.384;8.860;2023-05-24T05:51:33;5.07;;;4.07;;
74920;SDS011;63483;47.384;8.860;2023-05-24T05:53:59;5.20;;;4.18;;
74920;SDS011;63483;47.384;8.860;2023-05-24T05:56:24;4.80;;;3.50;;
74920;SDS011;63483;47.384;8.860;2023-05-24T05:58:51;5.68;;;4.05;;
74920;SDS011;63483;47.384;8.860;2023-05-24T06:01:16;6.00;;;4.73;;
74920;SDS011;63483;47.384;8.860;2023-05-24T06:03:41;6.17;;;3.90;;
74920;SDS011;63483;47.384;8.860;2023-05-24T06:06:07;4.80;;;3.70;;
74920;SDS011;63483;47.384;8.860;2023-05-24T06:08:32;5.97;;;4.00;;
74920;SDS011;63483;47.384;8.860;2023-05-24T06:10:59;5.70;;;3.83;;
74920;SDS011;63483;47.384;8.860;2023-05-24T06:13:25;4.80;;;4.07;;
74920;SDS011;63483;47.384;8.860;2023-05-24T06:15:52;5.30;;;4.00;;
74920;SDS011;63483;47.384;8.860;2023-05-24T06:18:18;5.63;;;4.50;;
74920;SDS011;63483;47.384;8.860;2023-05-24T06:20:43;5.90;;;4.30;;
74920;SDS011;63483;47.384;8.860;2023-05-24T06:23:08;7.15;;;4.22;;
74920;SDS011;63483;47.384;8.860;2023-05-24T06:25:34;5.80;;;4.17;;
74920;SDS011;63483;47.384;8.860;2023-05-24T06:27:59;5.87;;;4.63;;
74920;SDS011;63483;47.384;8.860;2023-05-24T06:30:24;6.07;;;4.63;;
74920;SDS011;63483;47.384;8.860;2023-05-24T06:32:50;5.72;;;4.47;;
74920;SDS011;63483;47.384;8.860;2023-05-24T06:35:15;6.63;;;4.70;;
74920;SDS011;63483;47.384;8.860;2023-05-24T06:37:41;6.73;;;4.70;;
74920;SDS011;63483;47.384;8.860;2023-05-24T06:40:06;7.30;;;5.00;;
74920;SDS011;63483;47.384;8.860;2023-05-24T06:42:33;5.68;;;4.43;;
74920;SDS011;63483;47.384;8.860;2023-05-24T06:44:59;6.53;;;5.32;;
74920;SDS011;63483;47.384;8.860;2023-05-24T06:47:25;5.63;;;4.23;;
74920;SDS011;63483;47.384;8.860;2023-05-24T06:49:54;6.27;;;5.00;;
74920;SDS011;63483;47.384;8.860;2023-05-24T06:52:19;6.45;;;5.03;;
74920;SDS011;63483;47.384;8.860;2023-05-24T06:54:44;5.47;;;4.90;;
74920;SDS011;63483;47.384;8.860;2023-05-24T06:57:10;6.70;;;5.17;;
74920;SDS011;63483;47.384;8.860;2023-05-24T06:59:35;6.30;;;5.03;;
74920;SDS011;63483;47.384;8.860;2023-05-24T07:02:01;6.40;;;4.87;;
74920;SDS011;63483;47.384;8.860;2023-05-24T07:04:26;6.33;;;4.70;;
74920;SDS011;63483;47.384;8.860;2023-05-24T07:06:52;6.63;;;4.78;;
74920;SDS011;63483;47.384;8.860;2023-05-24T07:09:18;6.67;;;5.07;;
74920;SDS011;63483;47.384;8.860;2023-05-24T07:11:44;6.60;;;4.82;;
74920;SDS011;63483;47.384;8.860;2023-05-24T07:14:09;6.87;;;5.50;;
74920;SDS011;63483;47.384;8.860;2023-05-24T07:16:35;6.67;;;5.13;;
74920;SDS011;63483;47.384;8.860;2023-05-24T07:19:00;6.60;;;5.10;;
74920;SDS011;63483;47.384;8.860;2023-05-24T07:21:26;6.07;;;4.88;;
74920;SDS011;63483;47.384;8.860;2023-05-24T07:23:51;6.67;;;5.23;;
74920;SDS011;63483;47.384;8.860;2023-05-24T07:26:16;6.47;;;5.03;;
74920;SDS011;63483;47.384;8.860;2023-05-24T07:28:42;6.00;;;4.83;;
74920;SDS011;63483;47.384;8.860;2023-05-24T07:31:07;5.93;;;5.10;;
74920;SDS011;63483;47.384;8.860;2023-05-24T07:33:37;5.90;;;4.57;;
74920;SDS011;63483;47.384;8.860;2023-05-24T07:36:03;6.55;;;4.95;;
74920;SDS011;63483;47.384;8.860;2023-05-24T07:38:29;6.25;;;4.60;;
74920;SDS011;63483;47.384;8.860;2023-05-24T07:40:57;6.43;;;4.90;;
74920;SDS011;63483;47.384;8.860;2023-05-24T07:43:23;6.88;;;4.78;;
74920;SDS011;63483;47.384;8.860;2023-05-24T07:45:49;6.13;;;4.83;;
74920;SDS011;63483;47.384;8.860;2023-05-24T07:48:14;6.30;;;5.10;;
74920;SDS011;63483;47.384;8.860;2023-05-24T07:50:40;5.80;;;4.80;;
74920;SDS011;63483;47.384;8.860;2023-05-24T07:53:05;5.80;;;4.60;;
74920;SDS011;63483;47.384;8.860;2023-05-24T07:55:31;9.47;;;4.57;;
74920;SDS011;63483;47.384;8.860;2023-05-24T07:57:56;6.47;;;5.37;;
74920;SDS011;63483;47.384;8.860;2023-05-24T08:00:21;6.20;;;4.70;;
74920;SDS011;63483;47.384;8.860;2023-05-24T08:02:47;7.07;;;4.60;;
74920;SDS011;63483;47.384;8.860;2023-05-24T08:05:12;5.73;;;4.83;;
74920;SDS011;63483;47.384;8.860;2023-05-24T08:07:38;6.20;;;4.70;;
74920;SDS011;63483;47.384;8.860;2023-05-24T08:10:05;6.25;;;4.45;;
74920;SDS011;63483;47.384;8.860;2023-05-24T08:12:31;6.15;;;5.43;;
74920;SDS011;63483;47.384;8.860;2023-05-24T08:14:57;6.70;;;5.20;;
74920;SDS011;63483;47.384;8.860;2023-05-24T08:17:23;6.32;;;5.43;;
74920;SDS011;63483;47.384;8.860;2023-05-24T08:19:48;6.37;;;5.47;;
74920;SDS011;63483;47.384;8.860;2023-05-24T08:22:14;6.63;;;5.27;;
74920;SDS011;63483;47.384;8.860;2023-05-24T08:24:40;7.67;;;6.07;;
74920;SDS011;63483;47.384;8.860;2023-05-24T08:27:05;6.80;;;4.93;;
74920;SDS011;63483;47.384;8.860;2023-05-24T08:29:31;6.43;;;5.15;;
74920;SDS011;63483;47.384;8.860;2023-05-24T08:31:57;7.05;;;5.03;;
74920;SDS011;63483;47.384;8.860;2023-05-24T08:34:22;6.87;;;5.27;;
74920;SDS011;63483;47.384;8.860;2023-05-24T08:36:48;6.23;;;5.23;;
74920;SDS011;63483;47.384;8.860;2023-05-24T08:39:13;6.57;;;5.13;;
74920;SDS011;63483;47.384;8.860;2023-05-24T08:41:39;6.50;;;5.63;;
74920;SDS011;63483;47.384;8.860;2023-05-24T08:44:05;5.45;;;4.60;;
74920;SDS011;63483;47.384;8.860;2023-05-24T08:46:34;6.30;;;4.28;;
74920;SDS011;63483;47.384;8.860;2023-05-24T08:49:01;6.38;;;4.00;;
74920;SDS011;63483;47.384;8.860;2023-05-24T08:51:28;5.40;;;4.33;;
74920;SDS011;63483;47.384;8.860;2023-05-24T08:53:55;7.18;;;4.60;;
74920;SDS011;63483;47.384;8.860;2023-05-24T08:56:22;6.90;;;5.10;;
74920;SDS011;63483;47.384;8.860;2023-05-24T08:58:50;5.82;;;4.85;;
74920;SDS011;63483;47.384;8.860;2023-05-24T09:01:17;6.88;;;5.40;;
74920;SDS011;63483;47.384;8.860;2023-05-24T09:03:44;9.23;;;5.13;;
74920;SDS011;63483;47.384;8.860;2023-05-24T09:06:10;7.05;;;5.38;;
74920;SDS011;63483;47.384;8.860;2023-05-24T09:08:37;7.85;;;5.57;;
74920;SDS011;63483;47.384;8.860;2023-05-24T09:11:04;8.05;;;5.95;;
74920;SDS011;63483;47.384;8.860;2023-05-24T09:13:32;8.87;;;5.70;;
74920;SDS011;63483;47.384;8.860;2023-05-24T09:15:59;6.22;;;5.38;;
74920;SDS011;63483;47.384;8.860;2023-05-24T09:18:24;7.70;;;5.45;;
74920;SDS011;63483;47.384;8.860;2023-05-24T09:20:50;9.43;;;6.10;;
74920;SDS011;63483;47.384;8.860;2023-05-24T09:23:16;8.57;;;6.57;;
74920;SDS011;63483;47.384;8.860;2023-05-24T09:25:42;8.97;;;6.10;;
74920;SDS011;63483;47.384;8.860;2023-05-24T09:28:09;8.18;;;6.03;;
74920;SDS011;63483;47.384;8.860;2023-05-24T09:30:38;9.43;;;6.75;;
74920;SDS011;63483;47.384;8.860;2023-05-24T09:33:07;9.20;;;6.30;;
74920;SDS011;63483;47.384;8.860;2023-05-24T09:35:32;7.33;;;5.83;;
74920;SDS011;63483;47.384;8.860;2023-05-24T09:37:57;8.63;;;6.07;;
74920;SDS011;63483;47.384;8.860;2023-05-24T09:40:26;8.75;;;6.22;;
74920;SDS011;63483;47.384;8.860;2023-05-24T09:43:01;8.07;;;5.32;;
74920;SDS011;63483;47.384;8.860;2023-05-24T09:45:28;8.50;;;6.30;;
74920;SDS011;63483;47.384;8.860;2023-05-24T09:47:53;7.97;;;5.83;;
74920;SDS011;63483;47.384;8.860;2023-05-24T09:50:18;7.73;;;5.87;;
74920;SDS011;63483;47.384;8.860;2023-05-24T09:52:44;7.43;;;5.83;;
74920;SDS011;63483;47.384;8.860;2023-05-24T09:55:10;8.60;;;6.27;;
74920;SDS011;63483;47.384;8.860;2023-05-24T09:57:39;7.30;;;5.38;;
74920;SDS011;63483;47.384;8.860;2023-05-24T10:00:06;7.90;;;5.63;;
74920;SDS011;63483;47.384;8.860;2023-05-24T10:02:38;7.43;;;5.30;;
74920;SDS011;63483;47.384;8.860;2023-05-24T10:05:04;8.05;;;5.18;;
74920;SDS011;63483;47.384;8.860;2023-05-24T10:07:29;7.97;;;5.00;;
74920;SDS011;63483;47.384;8.860;2023-05-24T10:09:58;8.32;;;5.75;;
74920;SDS011;63483;47.384;8.860;2023-05-24T10:12:25;9.15;;;6.18;;
74920;SDS011;63483;47.384;8.860;2023-05-24T10:14:51;8.30;;;5.37;;
74920;SDS011;63483;47.384;8.860;2023-05-24T10:17:21;10.10;;;6.28;;
74920;SDS011;63483;47.384;8.860;2023-05-24T10:19:46;9.20;;;6.57;;
74920;SDS011;63483;47.384;8.860;2023-05-24T10:22:12;8.95;;;6.15;;
74920;SDS011;63483;47.384;8.860;2023-05-24T10:24:38;9.43;;;5.93;;
74920;SDS011;63483;47.384;8.860;2023-05-24T10:27:08;8.23;;;6.05;;
74920;SDS011;63483;47.384;8.860;2023-05-24T10:32:23;8.50;;;6.07;;
74920;SDS011;63483;47.384;8.860;2023-05-24T10:34:50;8.50;;;6.67;;
74920;SDS011;63483;47.384;8.860;2023-05-24T10:37:18;10.20;;;6.53;;
74920;SDS011;63483;47.384;8.860;2023-05-24T10:39:43;9.70;;;6.57;;
74920;SDS011;63483;47.384;8.860;2023-05-24T10:42:08;9.80;;;6.65;;
74920;SDS011;63483;47.384;8.860;2023-05-24T10:44:34;9.67;;;6.47;;
74920;SDS011;63483;47.384;8.860;2023-05-24T10:49:35;8.82;;;6.03;;
74920;SDS011;63483;47.384;8.860;2023-05-24T10:52:05;8.93;;;6.72;;
74920;SDS011;63483;47.384;8.860;2023-05-24T10:54:32;10.80;;;6.73;;
74920;SDS011;63483;47.384;8.860;2023-05-24T10:56:59;10.57;;;7.05;;
74920;SDS011;63483;47.384;8.860;2023-05-24T11:01:59;8.15;;;5.70;;
74920;SDS011;63483;47.384;8.860;2023-05-24T11:04:25;8.45;;;6.15;;
74920;SDS011;63483;47.384;8.860;2023-05-24T11:06:56;8.98;;;6.25;;
74920;SDS011;63483;47.384;8.860;2023-05-24T11:09:26;9.57;;;6.28;;
74920;SDS011;63483;47.384;8.860;2023-05-24T11:12:11;8.50;;;6.37;;
74920;SDS011;63483;47.384;8.860;2023-05-24T11:14:40;10.50;;;6.38;;
74920;SDS011;63483;47.384;8.860;2023-05-24T11:17:12;9.57;;;6.05;;
74920;SDS011;63483;47.384;8.860;2023-05-24T11:19:39;9.60;;;6.47;;
74920;SDS011;63483;47.384;8.860;2023-05-24T11:22:11;13.05;;;6.65;;
74920;SDS011;63483;47.384;8.860;2023-05-24T11:24:39;10.65;;;6.07;;
74920;SDS011;63483;47.384;8.860;2023-05-24T11:27:05;8.33;;;6.33;;
74920;SDS011;63483;47.384;8.860;2023-05-24T11:29:31;8.57;;;6.13;;
74920;SDS011;63483;47.384;8.860;2023-05-24T11:31:57;9.43;;;6.32;;
74920;SDS011;63483;47.384;8.860;2023-05-24T11:34:29;8.63;;;6.40;;
74920;SDS011;63483;47.384;8.860;2023-05-24T11:36:56;8.65;;;5.97;;
74920;SDS011;63483;47.384;8.860;2023-05-24T11:39:23;9.45;;;6.05;;
74920;SDS011;63483;47.384;8.860;2023-05-24T11:41:52;9.25;;;6.00;;
74920;SDS011;63483;47.384;8.860;2023-05-24T11:44:18;15.17;;;7.63;;
74920;SDS011;63483;47.384;8.860;2023-05-24T11:46:43;11.23;;;7.50;;
74920;SDS011;63483;47.384;8.860;2023-05-24T11:49:13;11.00;;;6.20;;
74920;SDS011;63483;47.384;8.860;2023-05-24T11:51:40;12.40;;;6.78;;
74920;SDS011;63483;47.384;8.860;2023-05-24T11:54:06;12.05;;;6.90;;
74920;SDS011;63483;47.384;8.860;2023-05-24T11:56:31;10.73;;;6.87;;
74920;SDS011;63483;47.384;8.860;2023-05-24T12:01:39;11.13;;;6.88;;
74920;SDS011;63483;47.384;8.860;2023-05-24T12:04:05;12.27;;;6.70;;
74920;SDS011;63483;47.384;8.860;2023-05-24T12:06:33;11.80;;;6.68;;
74920;SDS011;63483;47.384;8.860;2023-05-24T12:09:00;14.13;;;7.13;;
74920;SDS011;63483;47.384;8.860;2023-05-24T12:11:29;11.73;;;6.93;;
74920;SDS011;63483;47.384;8.860;2023-05-24T12:13:57;9.50;;;6.45;;
74920;SDS011;63483;47.384;8.860;2023-05-24T12:16:31;10.82;;;7.13;;
74920;SDS011;63483;47.384;8.860;2023-05-24T12:19:03;13.00;;;6.60;;
74920;SDS011;63483;47.384;8.860;2023-05-24T12:21:29;10.80;;;7.05;;
74920;SDS011;63483;47.384;8.860;2023-05-24T12:24:03;11.35;;;6.40;;
74920;SDS011;63483;47.384;8.860;2023-05-24T12:26:33;11.85;;;7.82;;
74920;SDS011;63483;47.384;8.860;2023-05-24T12:29:05;12.07;;;6.53;;
74920;SDS011;63483;47.384;8.860;2023-05-24T12:31:30;12.57;;;7.80;;
74920;SDS011;63483;47.384;8.860;2023-05-24T12:33:56;11.45;;;6.95;;
74920;SDS011;63483;47.384;8.860;2023-05-24T12:36:22;14.13;;;7.97;;
74920;SDS011;63483;47.384;8.860;2023-05-24T12:38:47;10.87;;;7.30;;
74920;SDS011;63483;47.384;8.860;2023-05-24T12:41:12;11.33;;;7.80;;
74920;SDS011;63483;47.384;8.860;2023-05-24T12:43:38;13.13;;;7.80;;
74920;SDS011;63483;47.384;8.860;2023-05-24T12:46:04;11.23;;;7.47;;
74920;SDS011;63483;47.384;8.860;2023-05-24T12:48:29;12.73;;;8.10;;
74920;SDS011;63483;47.384;8.860;2023-05-24T12:50:55;12.17;;;7.80;;
74920;SDS011;63483;47.384;8.860;2023-05-24T12:53:20;12.93;;;7.67;;
74920;SDS011;63483;47.384;8.860;2023-05-24T12:55:48;13.60;;;8.07;;
74920;SDS011;63483;47.384;8.860;2023-05-24T12:58:15;11.07;;;7.70;;
74920;SDS011;63483;47.384;8.860;2023-05-24T13:00:41;11.43;;;8.23;;
74920;SDS011;63483;47.384;8.860;2023-05-24T13:03:09;11.80;;;7.57;;
74920;SDS011;63483;47.384;8.860;2023-05-24T13:05:34;11.87;;;7.37;;
74920;SDS011;63483;47.384;8.860;2023-05-24T13:08:00;11.52;;;7.32;;
74920;SDS011;63483;47.384;8.860;2023-05-24T13:10:25;12.33;;;7.03;;
74920;SDS011;63483;47.384;8.860;2023-05-24T13:12:51;15.93;;;8.37;;
74920;SDS011;63483;47.384;8.860;2023-05-24T13:15:17;11.35;;;7.78;;
74920;SDS011;63483;47.384;8.860;2023-05-24T13:17:43;14.43;;;7.72;;
74920;SDS011;63483;47.384;8.860;2023-05-24T13:20:09;12.60;;;7.50;;
74920;SDS011;63483;47.384;8.860;2023-05-24T13:22:36;9.82;;;6.55;;
74920;SDS011;63483;47.384;8.860;2023-05-24T13:25:05;13.48;;;7.18;;
74920;SDS011;63483;47.384;8.860;2023-05-24T13:27:32;12.93;;;7.40;;
74920;SDS011;63483;47.384;8.860;2023-05-24T13:29:58;12.33;;;7.53;;
74920;SDS011;63483;47.384;8.860;2023-05-24T13:32:24;13.88;;;7.35;;
74920;SDS011;63483;47.384;8.860;2023-05-24T13:34:49;12.30;;;7.30;;
74920;SDS011;63483;47.384;8.860;2023-05-24T13:37:16;12.80;;;7.72;;
74920;SDS011;63483;47.384;8.860;2023-05-24T13:39:41;13.23;;;7.33;;
74920;SDS011;63483;47.384;8.860;2023-05-24T13:42:07;12.57;;;8.23;;
74920;SDS011;63483;47.384;8.860;2023-05-24T13:44:33;13.70;;;7.03;;
74920;SDS011;63483;47.384;8.860;2023-05-24T13:46:59;12.88;;;7.97;;
74920;SDS011;63483;47.384;8.860;2023-05-24T13:49:24;12.17;;;7.50;;
74920;SDS011;63483;47.384;8.860;2023-05-24T13:51:50;14.03;;;7.63;;
74920;SDS011;63483;47.384;8.860;2023-05-24T13:54:16;13.90;;;8.32;;
74920;SDS011;63483;47.384;8.860;2023-05-24T13:56:42;15.90;;;8.80;;
74920;SDS011;63483;47.384;8.860;2023-05-24T13:59:08;13.50;;;8.40;;
74920;SDS011;63483;47.384;8.860;2023-05-24T14:01:34;15.18;;;8.75;;
74920;SDS011;63483;47.384;8.860;2023-05-24T14:04:03;17.55;;;8.52;;
74920;SDS011;63483;47.384;8.860;2023-05-24T14:06:30;13.25;;;8.57;;
74920;SDS011;63483;47.384;8.860;2023-05-24T14:08:56;12.87;;;8.17;;
74920;SDS011;63483;47.384;8.860;2023-05-24T14:11:23;12.30;;;7.93;;
74920;SDS011;63483;47.384;8.860;2023-05-24T14:13:49;14.82;;;8.50;;
74920;SDS011;63483;47.384;8.860;2023-05-24T14:16:15;14.03;;;7.80;;
74920;SDS011;63483;47.384;8.860;2023-05-24T14:18:40;11.40;;;8.50;;
74920;SDS011;63483;47.384;8.860;2023-05-24T14:21:07;14.80;;;8.70;;
74920;SDS011;63483;47.384;8.860;2023-05-24T14:23:32;13.33;;;7.90;;
74920;SDS011;63483;47.384;8.860;2023-05-24T14:25:58;13.63;;;7.70;;
74920;SDS011;63483;47.384;8.860;2023-05-24T14:28:23;12.13;;;7.72;;
74920;SDS011;63483;47.384;8.860;2023-05-24T14:30:49;13.23;;;8.10;;
74920;SDS011;63483;47.384;8.860;2023-05-24T14:33:14;11.70;;;7.30;;
74920;SDS011;63483;47.384;8.860;2023-05-24T14:35:40;11.38;;;7.38;;
74920;SDS011;63483;47.384;8.860;2023-05-24T14:38:05;15.87;;;9.20;;
74920;SDS011;63483;47.384;8.860;2023-05-24T14:40:32;13.82;;;8.43;;
74920;SDS011;63483;47.384;8.860;2023-05-24T14:43:00;12.38;;;8.15;;
74920;SDS011;63483;47.384;8.860;2023-05-24T14:45:29;15.43;;;8.47;;
74920;SDS011;63483;47.384;8.860;2023-05-24T14:47:55;18.00;;;8.95;;
74920;SDS011;63483;47.384;8.860;2023-05-24T14:50:21;14.20;;;8.10;;
74920;SDS011;63483;47.384;8.860;2023-05-24T14:52:47;16.73;;;8.55;;
74920;SDS011;63483;47.384;8.860;2023-05-24T14:55:12;12.50;;;8.00;;